Forside
METAR-TAF:

METAR-TAF

Lufthavne :

Lewis University Airport

Romeoville, Illinois, USA

Breddekreds: 41-36-30N, længdekreds: 088-05-39W, højde: 205 m

Aktuelle vejr

Denne rapport blev lavet for 19 minutter siden, kl. 06:55 UTC
Vind 10 kt fra østnordøst
Temperatur 8°C
Fugtighed 71%
Tryk 1020 hPa
Sigt: 16.1 km
Spredte skyer i en højde af 7000 ft
Brudte skyer i en højde af 8500 ft
Overskyet i en højde af 10000 ft

METAR: KLOT 210655Z AUTO 06010KT 10SM SCT070 BKN085 OVC100 08/03 A3013 RMK AO2 T00840034

Tid: 02:14 (07:14 UTC)


TAF: fraværende

Vejrobservationer og prognoser fra mere end 4000 lufthavne (METAR og TAF).

De gule og røde prikker repræsenterer de meteorologiske stationer.

Flyt musen over at se navnet på stationen.

Så klik over at se vejr observationer og prognoser.

At skifte det kort: Klik på de grønne knapper med et sort kors for at zoome ind; på den grønne knap med en bindestreg for at zoome ud; eller på de grønne pile for tilstødende kort.


METAR-TAF: